createdAt,value
2023-01-09T00:00:57.318Z,-4.27
2023-01-09T00:03:23.888Z,-4.37
2023-01-09T00:05:50.442Z,-4.44
2023-01-09T00:08:17.203Z,-4.57
2023-01-09T00:10:43.993Z,-4.62
2023-01-09T00:13:12.946Z,-4.63
2023-01-09T00:15:41.230Z,-4.63
2023-01-09T00:18:07.827Z,-4.61
2023-01-09T00:20:35.275Z,-4.64
2023-01-09T00:23:01.790Z,-4.65
2023-01-09T00:25:28.316Z,-4.67
2023-01-09T00:27:54.853Z,-4.71
2023-01-09T00:30:21.555Z,-4.70
2023-01-09T00:32:48.143Z,-4.68
2023-01-09T00:35:16.925Z,-4.66
2023-01-09T00:37:43.840Z,-4.61
2023-01-09T00:40:12.757Z,-4.56
2023-01-09T00:42:39.496Z,-4.43
2023-01-09T00:45:11.585Z,-4.13
2023-01-09T00:47:45.769Z,-4.05
2023-01-09T00:50:17.010Z,-4.02
2023-01-09T00:52:44.629Z,-3.94
2023-01-09T00:55:11.570Z,-3.86
2023-01-09T00:57:38.335Z,-3.75
2023-01-09T01:00:05.767Z,-3.66
2023-01-09T01:02:32.434Z,-3.61
2023-01-09T01:05:17.354Z,-3.55
2023-01-09T01:07:45.030Z,-3.50
2023-01-09T01:10:23.400Z,-3.45
2023-01-09T01:12:50.520Z,-3.38
2023-01-09T01:15:17.958Z,-3.27
2023-01-09T01:17:44.892Z,-3.19
2023-01-09T01:20:15.266Z,-3.10
2023-01-09T01:22:42.522Z,-3.04
2023-01-09T01:25:11.120Z,-2.98
2023-01-09T01:27:38.067Z,-2.91
2023-01-09T01:30:06.449Z,-2.86
2023-01-09T01:32:33.234Z,-2.76
2023-01-09T01:34:59.851Z,-2.65
2023-01-09T01:37:27.828Z,-2.54
2023-01-09T01:39:54.590Z,-2.48
2023-01-09T01:42:21.391Z,-2.40
2023-01-09T01:44:59.545Z,-2.26
2023-01-09T01:47:49.293Z,-2.14
2023-01-09T01:50:32.038Z,-2.00
2023-01-09T01:53:19.482Z,-1.96
2023-01-09T01:56:11.081Z,-1.99
2023-01-09T01:59:17.070Z,-1.92
2023-01-09T02:01:47.460Z,-1.84
2023-01-09T02:04:14.323Z,-1.78
2023-01-09T02:06:42.059Z,-1.68
2023-01-09T02:09:09.022Z,-1.56
2023-01-09T02:11:35.615Z,-1.45
2023-01-09T02:14:02.765Z,-1.41
2023-01-09T02:16:59.069Z,-1.27
2023-01-09T02:19:37.737Z,-1.27
2023-01-09T02:22:27.452Z,-1.25
2023-01-09T02:25:18.939Z,-1.00
2023-01-09T02:28:03.631Z,-0.73
2023-01-09T02:31:13.676Z,-0.52
2023-01-09T02:33:55.965Z,-0.34
2023-01-09T02:36:47.942Z,-0.30
2023-01-09T02:39:35.117Z,-0.20
2023-01-09T02:42:08.728Z,-0.22
2023-01-09T02:44:36.905Z,-0.08
2023-01-09T02:47:23.767Z,-0.01
2023-01-09T02:50:00.070Z,-0.01
2023-01-09T02:52:41.941Z,0.02
2023-01-09T02:55:45.818Z,0.03
2023-01-09T02:58:39.983Z,0.04
2023-01-09T03:01:32.629Z,0.04
2023-01-09T03:04:03.046Z,-0.01
2023-01-09T03:06:33.566Z,0.06
2023-01-09T03:09:05.260Z,0.13
2023-01-09T03:11:41.336Z,0.32
2023-01-09T03:14:19.624Z,0.53
2023-01-09T03:16:50.892Z,0.68
2023-01-09T03:19:21.375Z,0.75
2023-01-09T03:21:48.772Z,0.85
2023-01-09T03:24:15.520Z,0.89
2023-01-09T03:26:42.527Z,0.85
2023-01-09T03:29:10.066Z,0.88
2023-01-09T03:31:36.737Z,0.91
2023-01-09T03:34:03.504Z,0.85
2023-01-09T03:36:30.232Z,0.73
2023-01-09T03:38:56.807Z,0.78
2023-01-09T03:41:23.408Z,0.91
2023-01-09T03:43:50.008Z,0.99
2023-01-09T03:46:17.515Z,0.94
2023-01-09T03:48:44.126Z,0.91
2023-01-09T03:51:10.811Z,0.90
2023-01-09T03:53:37.697Z,0.94
2023-01-09T03:56:04.535Z,1.03
2023-01-09T03:58:31.254Z,1.11
2023-01-09T04:01:05.107Z,1.12
2023-01-09T04:03:31.800Z,1.21
2023-01-09T04:05:58.372Z,1.29
2023-01-09T04:08:24.954Z,1.30
2023-01-09T04:10:52.158Z,1.39
2023-01-09T04:13:19.312Z,1.47
2023-01-09T04:15:45.878Z,1.47
2023-01-09T04:18:12.779Z,1.47
2023-01-09T04:20:39.350Z,1.50
2023-01-09T04:23:05.907Z,1.58
2023-01-09T04:25:32.624Z,1.63
2023-01-09T04:27:59.290Z,1.77
2023-01-09T04:30:25.825Z,1.91
2023-01-09T04:32:52.487Z,1.92
2023-01-09T04:35:20.032Z,1.97
2023-01-09T04:37:46.547Z,1.98
2023-01-09T04:40:14.100Z,2.03
2023-01-09T04:42:41.235Z,2.02
2023-01-09T04:45:10.791Z,2.12
2023-01-09T04:47:37.629Z,2.06
2023-01-09T04:50:04.653Z,2.06
2023-01-09T04:52:31.191Z,1.94
2023-01-09T04:54:57.710Z,1.94
2023-01-09T04:57:24.234Z,1.86
2023-01-09T04:59:52.176Z,1.82
2023-01-09T05:02:18.800Z,1.82
2023-01-09T05:04:45.433Z,1.91
2023-01-09T05:07:12.069Z,1.96
2023-01-09T05:09:38.632Z,1.92
2023-01-09T05:12:05.544Z,1.87
2023-01-09T05:14:32.107Z,1.88
2023-01-09T05:16:58.671Z,1.85
2023-01-09T05:19:25.189Z,1.83
2023-01-09T05:21:51.740Z,1.83
2023-01-09T05:24:18.328Z,1.91
2023-01-09T05:26:44.879Z,1.95
2023-01-09T05:29:11.404Z,2.01
2023-01-09T05:31:37.988Z,2.13
2023-01-09T05:34:04.557Z,2.24
2023-01-09T05:36:31.152Z,2.23
2023-01-09T05:39:02.573Z,2.19
2023-01-09T05:41:29.561Z,2.23
2023-01-09T05:43:56.160Z,2.26
2023-01-09T05:46:22.846Z,2.34
2023-01-09T05:48:49.399Z,2.41
2023-01-09T05:51:15.895Z,2.54
2023-01-09T05:53:42.422Z,2.57
2023-01-09T05:56:10.771Z,2.70
2023-01-09T05:58:38.171Z,2.83
2023-01-09T06:01:06.305Z,2.91
2023-01-09T06:03:33.146Z,2.94
2023-01-09T06:05:59.752Z,2.98
2023-01-09T06:08:26.261Z,3.05
2023-01-09T06:10:52.787Z,3.17
2023-01-09T06:13:19.357Z,3.25
2023-01-09T06:15:48.543Z,3.30
2023-01-09T06:18:15.467Z,3.32
2023-01-09T06:20:42.168Z,3.31
2023-01-09T06:23:08.667Z,3.39
2023-01-09T06:25:35.537Z,3.52
2023-01-09T06:28:02.044Z,3.60
2023-01-09T06:30:28.593Z,3.60
2023-01-09T06:32:55.212Z,3.61
2023-01-09T06:35:22.432Z,3.57
2023-01-09T06:37:49.743Z,3.54
2023-01-09T06:40:17.527Z,3.63
2023-01-09T06:42:47.637Z,3.58
2023-01-09T06:45:14.500Z,3.45
2023-01-09T06:47:41.642Z,3.40
2023-01-09T06:50:10.359Z,3.35
2023-01-09T06:52:37.194Z,3.44
2023-01-09T06:55:04.355Z,3.42
2023-01-09T06:57:30.893Z,3.52
2023-01-09T06:59:57.889Z,3.41
2023-01-09T07:02:24.747Z,3.38
2023-01-09T07:04:51.420Z,3.17
2023-01-09T07:07:19.476Z,3.08
2023-01-09T07:09:46.057Z,2.96
2023-01-09T07:12:12.956Z,2.90
2023-01-09T07:14:39.453Z,2.93
2023-01-09T07:17:06.126Z,2.94
2023-01-09T07:19:32.864Z,3.09
2023-01-09T07:21:59.471Z,3.13
2023-01-09T07:24:26.082Z,3.11
2023-01-09T07:26:52.577Z,3.18
2023-01-09T07:29:19.076Z,3.28
2023-01-09T07:31:45.675Z,3.38
2023-01-09T07:34:12.197Z,3.38
2023-01-09T07:36:38.750Z,3.38
2023-01-09T07:39:05.332Z,3.36
2023-01-09T07:41:31.850Z,3.38
2023-01-09T07:43:58.440Z,3.39
2023-01-09T07:46:25.028Z,3.43
2023-01-09T07:48:51.547Z,3.46
2023-01-09T07:51:18.150Z,3.44
2023-01-09T07:53:44.722Z,3.49
2023-01-09T07:56:12.128Z,3.50
2023-01-09T07:58:38.749Z,3.50
2023-01-09T08:01:05.459Z,3.57
2023-01-09T08:03:33.489Z,3.59
2023-01-09T08:06:00.895Z,3.61
2023-01-09T08:08:28.048Z,3.59
2023-01-09T08:10:54.618Z,3.56
2023-01-09T08:13:21.705Z,3.57
2023-01-09T08:15:48.485Z,3.57
2023-01-09T08:18:15.124Z,3.51
2023-01-09T08:20:41.772Z,3.48
2023-01-09T08:23:08.433Z,3.46
2023-01-09T08:25:34.931Z,3.45
2023-01-09T08:28:01.515Z,3.45
2023-01-09T08:30:28.068Z,3.50
2023-01-09T08:32:54.650Z,3.55
2023-01-09T08:35:21.489Z,3.59
2023-01-09T08:37:48.849Z,3.67
2023-01-09T08:40:16.641Z,3.76
2023-01-09T08:43:02.489Z,3.72
2023-01-09T08:45:47.675Z,3.60
2023-01-09T08:48:14.641Z,3.56
2023-01-09T08:50:41.218Z,3.61
2023-01-09T08:53:07.747Z,3.72
2023-01-09T08:55:34.300Z,3.79
2023-01-09T08:58:00.907Z,3.82
2023-01-09T09:00:27.885Z,3.81
2023-01-09T09:02:56.941Z,3.86
2023-01-09T09:05:25.045Z,3.88
2023-01-09T09:07:56.078Z,3.90
2023-01-09T09:10:25.023Z,3.89
2023-01-09T09:12:53.704Z,3.90
2023-01-09T09:15:24.324Z,3.89
2023-01-09T09:17:59.298Z,3.90
2023-01-09T09:20:34.691Z,3.93
2023-01-09T09:23:01.667Z,3.97
2023-01-09T09:25:28.896Z,4.04
2023-01-09T09:28:00.969Z,4.16
2023-01-09T09:30:27.951Z,4.25
2023-01-09T09:32:54.769Z,4.28
2023-01-09T09:35:22.579Z,4.25
2023-01-09T09:37:56.407Z,4.22
2023-01-09T09:40:54.088Z,4.14
2023-01-09T09:43:57.362Z,4.06
2023-01-09T09:47:17.627Z,4.03
2023-01-09T09:50:05.596Z,4.04
2023-01-09T09:52:34.989Z,4.06
2023-01-09T09:55:12.278Z,4.08
2023-01-09T09:57:38.929Z,4.13
2023-01-09T10:00:07.428Z,4.14
2023-01-09T10:02:58.599Z,4.11
2023-01-09T10:05:45.945Z,4.11
2023-01-09T10:08:50.868Z,4.06
2023-01-09T10:11:25.915Z,4.18
2023-01-09T10:14:06.337Z,4.13
2023-01-09T10:16:43.513Z,4.12
2023-01-09T10:19:34.664Z,4.18
2023-01-09T10:22:11.316Z,4.14
2023-01-09T10:24:53.908Z,4.10
2023-01-09T10:27:23.259Z,4.10
2023-01-09T10:30:20.115Z,4.08
2023-01-09T10:32:53.493Z,4.11
2023-01-09T10:35:46.875Z,4.02
2023-01-09T10:38:18.755Z,4.04
2023-01-09T10:41:33.768Z,3.97
2023-01-09T10:44:05.781Z,3.85
2023-01-09T10:46:43.475Z,3.87
2023-01-09T10:49:16.052Z,3.67
2023-01-09T10:51:51.326Z,3.56
2023-01-09T10:54:21.644Z,3.51
2023-01-09T10:56:55.546Z,3.48
2023-01-09T10:59:23.596Z,3.39
2023-01-09T11:01:50.276Z,3.40
2023-01-09T11:04:37.585Z,3.23
2023-01-09T11:07:18.809Z,3.17
2023-01-09T11:10:07.414Z,2.97
2023-01-09T11:12:35.505Z,2.83
2023-01-09T11:15:20.248Z,2.80
2023-01-09T11:17:47.939Z,2.90
2023-01-09T11:20:23.539Z,3.09
2023-01-09T11:22:52.824Z,3.36
2023-01-09T11:25:23.031Z,3.35
2023-01-09T11:28:06.319Z,3.26
2023-01-09T11:30:51.025Z,3.16
2023-01-09T11:33:24.628Z,3.22
2023-01-09T11:35:56.463Z,3.30
2023-01-09T11:38:23.015Z,3.37
2023-01-09T11:40:57.755Z,3.36
2023-01-09T11:43:30.830Z,3.36
2023-01-09T11:46:01.460Z,3.37
2023-01-09T11:48:30.295Z,3.42
2023-01-09T11:50:59.683Z,3.45
2023-01-09T11:53:27.319Z,3.44
2023-01-09T11:56:03.834Z,3.44
2023-01-09T11:58:35.671Z,3.54
2023-01-09T12:01:40.690Z,3.71
2023-01-09T12:04:16.237Z,3.78
2023-01-09T12:07:00.735Z,3.63
2023-01-09T12:09:52.702Z,3.62
2023-01-09T12:12:38.521Z,3.55
2023-01-09T12:15:42.239Z,3.46
2023-01-09T12:18:34.005Z,3.39
2023-01-09T12:21:26.846Z,3.41
2023-01-09T12:24:11.975Z,3.39
2023-01-09T12:27:06.469Z,3.43
2023-01-09T12:30:04.953Z,3.41
2023-01-09T12:32:55.897Z,3.40
2023-01-09T12:35:44.317Z,3.46
2023-01-09T12:38:40.076Z,3.45
2023-01-09T12:41:34.335Z,3.49
2023-01-09T12:44:34.576Z,3.65
2023-01-09T12:47:32.052Z,3.87
2023-01-09T12:50:22.410Z,3.81
2023-01-09T12:53:17.398Z,3.73
2023-01-09T12:55:51.423Z,3.63
2023-01-09T12:58:49.540Z,3.70
2023-01-09T13:01:24.557Z,3.68
2023-01-09T13:04:15.306Z,3.70
2023-01-09T13:06:49.228Z,3.77
2023-01-09T13:09:35.385Z,3.76
2023-01-09T13:12:13.856Z,3.77
2023-01-09T13:14:40.444Z,3.76
2023-01-09T13:17:14.584Z,3.79
2023-01-09T13:19:43.743Z,3.76
2023-01-09T13:22:14.391Z,3.71
2023-01-09T13:25:00.489Z,3.63
2023-01-09T13:27:34.657Z,3.51
2023-01-09T13:30:07.920Z,3.55
2023-01-09T13:32:56.332Z,3.53
2023-01-09T13:35:22.899Z,3.49
2023-01-09T13:37:52.908Z,3.39
2023-01-09T13:40:19.374Z,3.41
2023-01-09T13:43:16.720Z,3.31
2023-01-09T13:45:44.751Z,3.28
2023-01-09T13:48:11.841Z,3.33
2023-01-09T13:50:39.557Z,3.26
2023-01-09T13:53:18.039Z,3.24
2023-01-09T13:55:59.886Z,3.24
2023-01-09T13:58:31.933Z,3.17
2023-01-09T14:01:01.784Z,3.14
2023-01-09T14:03:32.909Z,3.05
2023-01-09T14:05:59.688Z,3.01
2023-01-09T14:08:32.292Z,3.04
2023-01-09T14:11:01.177Z,3.02
2023-01-09T14:13:41.098Z,3.02
2023-01-09T14:16:17.077Z,2.99
2023-01-09T14:18:53.263Z,2.99
2023-01-09T14:21:20.441Z,2.96
2023-01-09T14:24:06.662Z,2.96
2023-01-09T14:26:42.883Z,3.00
2023-01-09T14:29:28.644Z,2.96
2023-01-09T14:32:21.197Z,2.95
2023-01-09T14:34:56.090Z,2.98
2023-01-09T14:37:23.474Z,2.97
2023-01-09T14:39:50.994Z,2.96
2023-01-09T14:42:24.613Z,2.95
2023-01-09T14:45:06.550Z,2.89
2023-01-09T14:47:46.605Z,2.88
2023-01-09T14:50:29.614Z,2.88
2023-01-09T14:53:08.119Z,2.88
2023-01-09T14:55:52.874Z,2.89
2023-01-09T14:58:21.287Z,2.85
2023-01-09T15:00:52.216Z,2.84
2023-01-09T15:03:19.987Z,2.79
2023-01-09T15:05:47.713Z,2.74
2023-01-09T15:08:21.359Z,2.75
2023-01-09T15:10:51.086Z,2.78
2023-01-09T15:13:26.590Z,2.74
2023-01-09T15:15:53.196Z,2.73
2023-01-09T15:18:25.870Z,2.73
2023-01-09T15:20:56.655Z,2.78
2023-01-09T15:23:28.920Z,2.76
2023-01-09T15:25:56.594Z,2.72
2023-01-09T15:28:33.265Z,2.73
2023-01-09T15:31:07.797Z,2.73
2023-01-09T15:33:35.418Z,2.72
2023-01-09T15:36:08.181Z,2.70
2023-01-09T15:38:36.134Z,2.74
2023-01-09T15:41:09.525Z,2.74
2023-01-09T15:43:41.093Z,2.77
2023-01-09T15:46:07.950Z,2.78
2023-01-09T15:48:35.841Z,2.78
2023-01-09T15:51:13.239Z,2.78
2023-01-09T15:53:45.439Z,2.77
2023-01-09T15:56:23.949Z,2.76
2023-01-09T15:58:52.088Z,2.82
2023-01-09T16:01:21.629Z,2.74
2023-01-09T16:03:48.405Z,2.72
2023-01-09T16:06:23.122Z,2.76
2023-01-09T16:08:52.391Z,2.74
2023-01-09T16:11:26.253Z,2.72
2023-01-09T16:13:53.903Z,2.70
2023-01-09T16:16:31.198Z,2.70
2023-01-09T16:18:58.757Z,2.74
2023-01-09T16:21:38.095Z,2.72
2023-01-09T16:24:16.574Z,2.71
2023-01-09T16:26:43.100Z,2.70
2023-01-09T16:29:35.627Z,2.74
2023-01-09T16:32:04.671Z,2.73
2023-01-09T16:34:33.500Z,2.72
2023-01-09T16:37:02.797Z,2.71
2023-01-09T16:39:29.504Z,2.71
2023-01-09T16:42:16.240Z,2.72
2023-01-09T16:44:43.156Z,2.70
2023-01-09T16:47:12.976Z,2.70
2023-01-09T16:49:39.566Z,2.70
2023-01-09T16:52:15.483Z,2.64
2023-01-09T16:54:43.673Z,2.64
2023-01-09T16:57:15.909Z,2.65
2023-01-09T16:59:43.595Z,2.66
2023-01-09T17:02:17.794Z,2.65
2023-01-09T17:04:45.091Z,2.63
2023-01-09T17:07:16.019Z,2.56
2023-01-09T17:09:43.322Z,2.53
2023-01-09T17:12:18.916Z,2.57
2023-01-09T17:14:46.623Z,2.56
2023-01-09T17:17:13.448Z,2.62
2023-01-09T17:19:40.481Z,2.63
2023-01-09T17:22:07.533Z,2.64
2023-01-09T17:24:53.290Z,2.58
2023-01-09T17:27:49.027Z,2.53
2023-01-09T17:30:19.685Z,2.51
2023-01-09T17:32:47.147Z,2.50
2023-01-09T17:35:15.744Z,2.48
2023-01-09T17:37:43.186Z,2.47
2023-01-09T17:40:28.802Z,2.44
2023-01-09T17:42:55.383Z,2.38
2023-01-09T17:45:21.997Z,2.39
2023-01-09T17:47:48.719Z,2.43
2023-01-09T17:50:21.081Z,2.39
2023-01-09T17:52:48.385Z,2.42
2023-01-09T17:55:15.219Z,2.43
2023-01-09T17:57:45.062Z,2.39
2023-01-09T18:00:36.658Z,2.40
2023-01-09T18:03:05.072Z,2.37
2023-01-09T18:05:31.671Z,2.37
2023-01-09T18:07:58.235Z,2.34
2023-01-09T18:10:27.286Z,2.33
2023-01-09T18:12:55.631Z,2.34
2023-01-09T18:15:24.480Z,2.31
2023-01-09T18:17:52.032Z,2.30
2023-01-09T18:20:18.942Z,2.29
2023-01-09T18:22:45.526Z,2.38
2023-01-09T18:25:12.061Z,2.38
2023-01-09T18:27:39.247Z,2.38
2023-01-09T18:30:07.426Z,2.40
2023-01-09T18:32:34.498Z,2.40
2023-01-09T18:35:01.161Z,2.41
2023-01-09T18:37:27.777Z,2.37
2023-01-09T18:39:54.294Z,2.39
2023-01-09T18:42:20.861Z,2.39
2023-01-09T18:44:47.415Z,2.34
2023-01-09T18:47:14.175Z,2.35
2023-01-09T18:49:40.711Z,2.35
2023-01-09T18:52:07.799Z,2.32
2023-01-09T18:54:34.503Z,2.33
2023-01-09T18:57:01.276Z,2.40
2023-01-09T18:59:28.015Z,2.39
2023-01-09T19:01:54.541Z,2.35
2023-01-09T19:04:21.310Z,2.36
2023-01-09T19:06:47.916Z,2.34
2023-01-09T19:09:14.786Z,2.29
2023-01-09T19:11:44.332Z,2.29
2023-01-09T19:14:11.566Z,2.27
2023-01-09T19:16:38.132Z,2.24
2023-01-09T19:19:06.522Z,2.21
2023-01-09T19:21:33.332Z,2.20
2023-01-09T19:24:00.314Z,2.24
2023-01-09T19:26:28.438Z,2.20
2023-01-09T19:28:57.334Z,2.17
2023-01-09T19:31:26.419Z,2.16
2023-01-09T19:33:53.334Z,2.14
2023-01-09T19:36:21.308Z,2.11
2023-01-09T19:38:48.096Z,2.10
2023-01-09T19:41:19.312Z,2.08
2023-01-09T19:43:46.925Z,2.06
2023-01-09T19:46:18.867Z,2.04
2023-01-09T19:48:46.373Z,2.02
2023-01-09T19:51:15.533Z,2.01
2023-01-09T19:53:42.576Z,2.03
2023-01-09T19:56:14.734Z,1.94
2023-01-09T19:58:42.914Z,1.93
2023-01-09T20:01:12.634Z,1.91
2023-01-09T20:03:43.587Z,1.92
2023-01-09T20:06:14.239Z,1.94
2023-01-09T20:08:41.823Z,1.93
2023-01-09T20:11:08.807Z,1.87
2023-01-09T20:13:35.591Z,1.88
2023-01-09T20:16:03.655Z,1.80
2023-01-09T20:18:32.057Z,1.80
2023-01-09T20:20:59.014Z,1.77
2023-01-09T20:23:32.509Z,1.75
2023-01-09T20:26:00.134Z,1.73
2023-01-09T20:28:27.813Z,1.74
2023-01-09T20:30:54.712Z,1.73
2023-01-09T20:33:21.842Z,1.73
2023-01-09T20:35:48.531Z,1.65
2023-01-09T20:38:15.193Z,1.69
2023-01-09T20:40:44.641Z,1.73
2023-01-09T20:43:12.917Z,1.67
2023-01-09T20:45:40.712Z,1.62
2023-01-09T20:48:08.231Z,1.62
2023-01-09T20:50:34.999Z,1.59
2023-01-09T20:53:01.567Z,1.57
2023-01-09T20:55:28.124Z,1.56
2023-01-09T20:57:54.677Z,1.58
2023-01-09T21:00:21.706Z,1.59
2023-01-09T21:02:48.282Z,1.54
2023-01-09T21:05:15.170Z,1.57
2023-01-09T21:07:41.721Z,1.59
2023-01-09T21:10:09.024Z,1.64
2023-01-09T21:12:35.627Z,1.63
2023-01-09T21:15:05.212Z,1.67
2023-01-09T21:17:36.593Z,1.68
2023-01-09T21:20:05.365Z,1.70
2023-01-09T21:22:34.459Z,1.71
2023-01-09T21:25:01.053Z,1.68
2023-01-09T21:27:32.468Z,1.59
2023-01-09T21:29:58.956Z,1.62
2023-01-09T21:32:25.540Z,1.63
2023-01-09T21:34:52.133Z,1.61
2023-01-09T21:37:18.718Z,1.57
2023-01-09T21:39:45.265Z,1.53
2023-01-09T21:42:30.139Z,1.49
2023-01-09T21:45:15.089Z,1.43
2023-01-09T21:47:41.643Z,1.47
2023-01-09T21:50:08.749Z,1.43
2023-01-09T21:52:36.612Z,1.45
2023-01-09T21:55:03.258Z,1.47
2023-01-09T21:57:29.772Z,1.42
2023-01-09T21:59:56.321Z,1.42
2023-01-09T22:02:22.969Z,1.41
2023-01-09T22:04:49.546Z,1.45
2023-01-09T22:07:16.704Z,1.45
2023-01-09T22:09:44.529Z,1.47
2023-01-09T22:12:14.025Z,1.45
2023-01-09T22:14:40.542Z,1.45
2023-01-09T22:17:07.137Z,1.48
2023-01-09T22:19:33.750Z,1.46
2023-01-09T22:22:02.541Z,1.44
2023-01-09T22:24:29.196Z,1.41
2023-01-09T22:26:55.769Z,1.38
2023-01-09T22:29:22.365Z,1.36
2023-01-09T22:31:48.953Z,1.33
2023-01-09T22:34:17.280Z,1.29
2023-01-09T22:36:45.129Z,1.27
2023-01-09T22:39:13.850Z,1.26
2023-01-09T22:41:41.046Z,1.27
2023-01-09T22:44:09.555Z,1.26
2023-01-09T22:46:36.096Z,1.25
2023-01-09T22:49:02.884Z,1.27
2023-01-09T22:51:33.534Z,1.24
2023-01-09T22:54:00.794Z,1.24
2023-01-09T22:56:27.743Z,1.29
2023-01-09T22:58:58.379Z,1.33
2023-01-09T23:01:25.306Z,1.30
2023-01-09T23:03:51.878Z,1.31
2023-01-09T23:06:21.344Z,1.31
2023-01-09T23:08:50.676Z,1.33
2023-01-09T23:11:42.017Z,1.27
2023-01-09T23:14:09.035Z,1.30
2023-01-09T23:16:35.853Z,1.28
2023-01-09T23:19:02.652Z,1.31
2023-01-09T23:21:29.159Z,1.32
2023-01-09T23:23:55.705Z,1.32
2023-01-09T23:26:22.278Z,1.33
2023-01-09T23:28:48.785Z,1.31
2023-01-09T23:31:15.628Z,1.33
2023-01-09T23:33:42.187Z,1.32
2023-01-09T23:36:08.944Z,1.31
2023-01-09T23:38:35.570Z,1.29
2023-01-09T23:41:02.123Z,1.31
2023-01-09T23:43:28.646Z,1.30
2023-01-09T23:45:55.276Z,1.31
2023-01-09T23:48:21.890Z,1.32
2023-01-09T23:50:50.730Z,1.31
2023-01-09T23:53:18.750Z,1.29
2023-01-09T23:55:45.809Z,1.32
2023-01-09T23:58:12.422Z,1.30
